Time;durP1;ratioP1;P1;durP2;ratioP2;P2;SDS_P1;SDS_P2;PMS_P1;PMS_P2;Temp;Humidity;BMP_temperature;BMP_pressure;BME280_temperature;BME280_humidity;BME280_pressure;Samples;Min_cycle;Max_cycle;Signal;HPM_P1;HPM_P2
2021/08/21 00:02:00;;;;;;;18.40;13.50;;;;;;;16.17;87.34;100827.37;1639219;83;25839;-76
2021/08/21 00:04:28;;;;;;;19.65;14.20;;;;;;;16.21;87.41;100829.95;1704928;83;25820;-76
2021/08/21 00:06:55;;;;;;;22.87;15.13;;;;;;;16.20;87.42;100826.95;1685668;83;26404;-76
2021/08/21 00:09:22;;;;;;;21.93;14.38;;;;;;;16.20;87.42;100832.36;1644588;83;25969;-76
2021/08/21 00:11:49;;;;;;;20.77;15.40;;;;;;;16.18;87.54;100826.34;1621630;83;27398;-76
2021/08/21 00:14:16;;;;;;;19.02;13.88;;;;;;;16.17;87.56;100828.21;1676075;83;25970;-76
2021/08/21 00:16:43;;;;;;;21.37;15.93;;;;;;;16.20;87.57;100825.09;1638897;83;26302;-75
2021/08/21 00:19:10;;;;;;;26.07;15.03;;;;;;;16.22;87.52;100830.27;1651396;83;26454;-75
2021/08/21 00:21:37;;;;;;;23.15;15.08;;;;;;;16.23;87.54;100833.25;1622434;83;25822;-76
2021/08/21 00:24:05;;;;;;;18.23;13.50;;;;;;;16.21;87.48;100831.30;1712503;83;27626;-76
2021/08/21 00:26:32;;;;;;;18.60;13.78;;;;;;;16.23;87.66;100839.20;1674872;83;25729;-76
2021/08/21 00:28:59;;;;;;;20.40;13.50;;;;;;;16.23;87.66;100836.51;1627371;83;25554;-76
2021/08/21 00:31:27;;;;;;;17.10;13.48;;;;;;;16.24;87.68;100836.28;1618424;83;25892;-76
2021/08/21 00:33:55;;;;;;;17.87;14.10;;;;;;;16.27;87.71;100834.50;1668712;83;26271;-75
2021/08/21 00:36:22;;;;;;;19.02;14.78;;;;;;;16.29;87.74;100841.03;1674537;83;27504;-76
2021/08/21 00:38:49;;;;;;;19.25;14.43;;;;;;;16.31;87.81;100843.83;1635609;83;25849;-75
2021/08/21 00:41:16;;;;;;;18.90;13.80;;;;;;;16.30;87.68;100842.16;1650011;84;25828;-76
2021/08/21 00:43:44;;;;;;;17.85;13.38;;;;;;;16.33;87.84;100838.20;1696650;83;26518;-76
2021/08/21 00:46:11;;;;;;;23.22;16.30;;;;;;;16.34;87.87;100841.22;1705537;83;25744;-76
2021/08/21 00:48:38;;;;;;;21.07;15.35;;;;;;;16.33;87.72;100836.33;1677505;83;27638;-76
2021/08/21 00:51:05;;;;;;;20.82;15.25;;;;;;;16.33;87.81;100832.79;1651513;83;26609;-76
2021/08/21 00:53:33;;;;;;;19.40;14.47;;;;;;;16.32;87.90;100837.88;1674695;83;25843;-76
2021/08/21 00:56:02;;;;;;;19.80;13.70;;;;;;;16.30;87.86;100836.75;1666868;84;26553;-75
2021/08/21 00:58:35;;;;;;;23.20;14.40;;;;;;;16.34;87.97;100831.76;1646124;84;25892;-76
2021/08/21 01:01:02;;;;;;;;;;;;;;;16.34;87.83;100833.11;1615666;86;27414;-75
2021/08/21 01:03:30;;;;;;;18.45;12.20;;;;;;;16.37;88.22;100839.41;1637941;86;25848;-76
2021/08/21 01:05:58;;;;;;;16.95;13.48;;;;;;;16.34;88.03;100828.51;1651161;84;25906;-76
2021/08/21 01:08:25;;;;;;;15.83;13.22;;;;;;;16.35;87.98;100831.53;1634873;84;26478;-76
2021/08/21 01:10:53;;;;;;;17.98;14.20;;;;;;;16.35;87.98;100839.64;1651795;84;25826;-76
2021/08/21 01:13:20;;;;;;;19.37;13.00;;;;;;;16.32;87.98;100840.58;1653136;85;28259;-75
2021/08/21 01:15:48;;;;;;;18.17;13.32;;;;;;;16.28;87.96;100832.09;1657023;83;25775;-76
2021/08/21 01:18:15;;;;;;;20.55;13.60;;;;;;;16.30;88.16;100836.75;1672527;83;25820;-76
2021/08/21 01:20:45;;;;;;;20.65;14.28;;;;;;;16.28;88.07;100832.61;1639515;84;25880;-76
2021/08/21 01:23:14;;;;;;;23.95;14.30;;;;;;;16.27;88.09;100834.50;1662902;83;25320;-76
2021/08/21 01:26:01;;;;;;;20.43;14.40;;;;;;;16.24;88.05;100826.82;1704390;83;27531;-76
2021/08/21 01:28:30;;;;;;;21.33;15.13;;;;;;;16.23;88.26;100825.98;1654233;83;25839;-76
2021/08/21 01:31:06;;;;;;;20.62;15.90;;;;;;;16.24;88.27;100829.52;1653404;83;26548;-76
2021/08/21 01:33:38;;;;;;;23.52;15.85;;;;;;;16.21;88.38;100829.43;1686450;83;26407;-76
2021/08/21 01:36:05;;;;;;;27.98;17.48;;;;;;;16.19;88.49;100827.98;1677882;83;25802;-76
2021/08/21 01:38:34;;;;;;;26.93;18.23;;;;;;;16.19;88.68;100832.88;1656912;83;27311;-76
2021/08/21 01:41:03;;;;;;;29.00;18.55;;;;;;;16.19;88.88;100832.88;1642433;84;25895;-76
2021/08/21 01:43:32;;;;;;;27.58;18.20;;;;;;;16.16;88.96;100829.27;1668385;83;25853;-76
2021/08/21 01:46:01;;;;;;;26.95;18.25;;;;;;;16.11;89.30;100831.78;1665899;83;26531;-76
2021/08/21 01:48:28;;;;;;;35.52;18.95;;;;;;;16.09;89.26;100833.05;1667984;84;25842;-76
2021/08/21 01:50:56;;;;;;;36.63;19.90;;;;;;;16.11;89.69;100834.49;1659371;84;27638;-75
2021/08/21 01:53:24;;;;;;;41.98;21.00;;;;;;;16.10;89.81;100834.72;1665848;85;26612;-76
2021/08/21 01:55:51;;;;;;;35.45;20.27;;;;;;;16.11;89.90;100835.00;1696125;84;25806;-76
2021/08/21 01:58:49;;;;;;;40.08;22.32;;;;;;;16.08;90.04;100832.75;1670150;82;27121;-75
2021/08/21 02:01:26;;;;;;;31.40;19.27;;;;;;;16.04;90.34;100826.94;1680963;84;26547;-76
2021/08/21 02:04:12;;;;;;;35.33;20.12;;;;;;;16.02;90.57;100820.92;1652543;84;27547;-76
2021/08/21 02:06:40;;;;;;;41.53;21.52;;;;;;;16.03;90.76;100831.22;1664067;84;25897;-76
2021/08/21 02:09:07;;;;;;;31.17;20.30;;;;;;;16.02;90.89;100827.67;1680919;83;25811;-75
2021/08/21 02:11:34;;;;;;;32.78;19.40;;;;;;;16.00;90.88;100831.63;1665224;84;25890;-76
2021/08/21 02:14:01;;;;;;;41.37;21.85;;;;;;;16.02;91.74;100833.08;1658292;85;25880;-76
2021/08/21 02:16:29;;;;;;;33.53;22.00;;;;;;;15.99;91.40;100829.99;1635150;84;27584;-76
2021/08/21 02:18:56;;;;;;;36.73;22.17;;;;;;;15.97;91.35;100831.53;1654429;84;25933;-76
2021/08/21 02:21:25;;;;;;;37.03;23.32;;;;;;;16.00;91.68;100835.69;1660710;84;25891;-76
2021/08/21 02:23:54;;;;;;;39.55;23.27;;;;;;;16.00;91.49;100837.88;1652469;85;26366;-76
2021/08/21 02:26:22;;;;;;;36.65;22.58;;;;;;;16.04;91.72;100835.04;1658127;84;25853;-76
2021/08/21 02:28:52;;;;;;;38.85;24.70;;;;;;;16.05;91.56;100840.77;1680734;82;27486;-76
2021/08/21 02:31:19;;;;;;;40.17;24.30;;;;;;;16.07;91.63;100842.73;1658960;84;25896;-75
2021/08/21 02:33:47;;;;;;;35.25;22.80;;;;;;;16.08;91.75;100832.75;1660351;84;25928;-76
2021/08/21 02:36:14;;;;;;;33.95;23.05;;;;;;;16.08;91.77;100836.81;1650752;84;25796;-76
2021/08/21 02:38:44;;;;;;;33.18;22.35;;;;;;;16.07;91.67;100831.92;1673584;84;26821;-76
2021/08/21 02:41:12;;;;;;;32.90;21.40;;;;;;;16.06;91.84;100832.95;1675285;83;27739;-76
2021/08/21 02:43:38;;;;;;;31.57;20.37;;;;;;;16.03;91.74;100832.56;1655920;83;25838;-76
2021/08/21 02:46:05;;;;;;;33.92;21.27;;;;;;;15.99;92.16;100832.18;1679821;83;25852;-75
2021/08/21 02:48:32;;;;;;;33.10;22.10;;;;;;;15.93;92.14;100837.07;1671769;84;25838;-76
2021/08/21 02:51:00;;;;;;;35.43;22.35;;;;;;;15.91;92.29;100839.70;1658811;83;25916;-75
2021/08/21 02:53:27;;;;;;;35.35;23.35;;;;;;;15.93;92.34;100841.13;1638376;85;27487;-76
2021/08/21 02:55:55;;;;;;;37.63;23.70;;;;;;;15.90;92.62;100838.88;1647604;85;25357;-76
2021/08/21 02:58:22;;;;;;;39.78;24.35;;;;;;;15.91;92.47;100840.52;1678108;84;25723;-76
2021/08/21 03:00:50;;;;;;;38.42;23.80;;;;;;;15.93;92.66;100837.07;1664636;84;25792;-76
2021/08/21 03:03:17;;;;;;;38.85;23.57;;;;;;;15.96;92.58;100833.95;1654684;85;26018;-75
2021/08/21 03:05:46;;;;;;;41.30;24.82;;;;;;;15.99;92.55;100833.53;1636979;84;27541;-76
2021/08/21 03:08:13;;;;;;;42.45;24.55;;;;;;;15.97;92.68;100838.30;1660595;84;26721;-76
2021/08/21 03:10:42;;;;;;;40.10;25.10;;;;;;;15.98;92.93;100833.21;1663171;84;25330;-76
2021/08/21 03:13:09;;;;;;;38.45;25.17;;;;;;;16.00;92.79;100832.47;1671414;84;25935;-76
2021/08/21 03:15:37;;;;;;;44.38;27.52;;;;;;;16.04;92.75;100834.20;1664031;84;25742;-76
2021/08/21 03:18:04;;;;;;;40.17;24.80;;;;;;;16.07;92.74;100837.33;1680218;84;27453;-76
2021/08/21 03:20:32;;;;;;;39.50;24.55;;;;;;;16.09;92.69;100837.94;1657337;84;25958;-76
2021/08/21 03:23:00;;;;;;;38.45;24.50;;;;;;;16.12;92.65;100842.08;1660281;84;26328;-76
2021/08/21 03:25:29;;;;;;;37.90;24.72;;;;;;;16.11;92.60;100841.77;1684706;83;25873;-75
2021/08/21 03:27:57;;;;;;;41.18;24.18;;;;;;;16.11;92.58;100842.59;1690669;84;26395;-76
2021/08/21 03:30:24;;;;;;;35.38;23.00;;;;;;;16.13;92.60;100844.56;1666146;84;27470;-76
2021/08/21 03:32:59;;;;;;;34.65;22.73;;;;;;;16.14;92.57;100849.45;1646508;84;25804;-76
2021/08/21 03:35:26;;;;;;;35.65;22.82;;;;;;;16.13;92.64;100841.02;1666249;84;26033;-76
2021/08/21 03:37:54;;;;;;;38.00;23.18;;;;;;;16.12;92.59;100848.84;1689585;84;26383;-76
2021/08/21 03:40:21;;;;;;;35.10;23.98;;;;;;;16.10;92.60;100849.03;1665178;84;26019;-76
2021/08/21 03:42:50;;;;;;;38.28;23.83;;;;;;;16.08;92.71;100847.07;1663924;84;27608;-76
2021/08/21 03:45:17;;;;;;;34.00;22.73;;;;;;;16.07;92.72;100854.89;1634420;85;25966;-77
2021/08/21 03:47:47;;;;;;;35.80;22.52;;;;;;;16.07;92.78;100856.75;1659781;84;26106;-76
2021/08/21 03:50:14;;;;;;;34.63;22.27;;;;;;;16.11;92.83;100855.27;1640907;84;26214;-76
2021/08/21 03:52:41;;;;;;;36.35;22.48;;;;;;;16.14;92.88;100842.69;1625318;84;26619;-76
2021/08/21 03:55:09;;;;;;;38.05;22.75;;;;;;;16.16;92.83;100849.55;1650956;84;27510;-76
2021/08/21 03:57:38;;;;;;;35.33;22.35;;;;;;;16.17;92.59;100854.41;1677067;84;26708;-76
2021/08/21 04:00:07;;;;;;;35.63;22.37;;;;;;;16.18;92.58;100856.08;1644451;85;26045;-76
2021/08/21 04:02:36;;;;;;;36.85;23.75;;;;;;;16.20;92.65;100857.52;1629445;84;26559;-76
2021/08/21 04:05:03;;;;;;;32.85;21.85;;;;;;;16.21;92.54;100855.62;1651110;84;26488;-76
2021/08/21 04:07:31;;;;;;;31.73;20.68;;;;;;;16.23;92.62;100861.13;1679923;84;27523;-76
2021/08/21 04:09:58;;;;;;;32.98;22.00;;;;;;;16.22;92.38;100861.34;1659140;84;26459;-76
2021/08/21 04:12:25;;;;;;;34.18;21.68;;;;;;;16.23;92.46;100861.13;1658951;84;26429;-76
2021/08/21 04:14:53;;;;;;;33.23;20.70;;;;;;;16.27;92.46;100866.11;1622881;84;26529;-76
2021/08/21 04:17:23;;;;;;;31.65;21.05;;;;;;;16.30;92.56;100864.30;1674671;84;25861;-76
2021/08/21 04:19:51;;;;;;;33.75;21.68;;;;;;;16.31;92.50;100868.68;1654484;84;28193;-76
2021/08/21 04:22:19;;;;;;;31.48;20.75;;;;;;;16.34;92.49;100864.20;1649443;84;26229;-76
2021/08/21 04:24:50;;;;;;;31.73;21.85;;;;;;;16.38;92.47;100871.63;1628147;84;25991;-76
2021/08/21 04:27:17;;;;;;;37.00;22.40;;;;;;;16.40;92.34;100871.44;1679867;84;26426;-75
2021/08/21 04:29:46;;;;;;;32.30;22.17;;;;;;;16.43;92.29;100880.44;1658074;84;26200;-76
2021/08/21 04:32:14;;;;;;;32.75;21.85;;;;;;;16.43;92.30;100878.58;1649516;84;28165;-75
2021/08/21 04:34:41;;;;;;;36.20;23.65;;;;;;;16.44;92.23;100881.60;1657995;85;26040;-76
2021/08/21 04:37:10;;;;;;;32.90;23.22;;;;;;;16.44;92.27;100880.25;1672994;84;26189;-76
2021/08/21 04:39:39;;;;;;;38.67;25.75;;;;;;;16.43;92.35;100883.98;1662696;84;25953;-76
2021/08/21 04:42:07;;;;;;;34.65;23.95;;;;;;;16.42;92.31;100889.10;1661956;84;26463;-76
2021/08/21 04:44:34;;;;;;;36.08;22.85;;;;;;;16.40;92.34;100895.22;1636258;84;27475;-77
2021/08/21 04:47:01;;;;;;;32.45;23.18;;;;;;;16.40;92.36;100895.77;1625319;85;25371;-76
2021/08/21 04:49:28;;;;;;;37.20;23.62;;;;;;;16.43;92.53;100895.31;1644221;85;25917;-76
2021/08/21 04:51:56;;;;;;;37.50;23.35;;;;;;;16.47;92.71;100900.08;1588158;84;25905;-76
2021/08/21 04:54:24;;;;;;;34.18;22.15;;;;;;;16.49;92.63;100902.55;1669252;84;25338;-76
2021/08/21 04:56:51;;;;;;;32.67;21.12;;;;;;;16.50;92.55;100898.84;1635705;84;28218;-76
2021/08/21 04:59:23;;;;;;;36.30;22.27;;;;;;;16.49;92.57;100901.20;1654319;84;25948;-76
2021/08/21 05:01:51;;;;;;;34.53;21.55;;;;;;;16.50;92.67;100905.09;1638819;84;26569;-77
2021/08/21 05:04:19;;;;;;;29.98;21.23;;;;;;;16.55;92.64;100901.73;1655343;85;25936;-76
2021/08/21 05:06:48;;;;;;;32.90;22.27;;;;;;;16.59;92.82;100902.44;1645338;84;25885;-75
2021/08/21 05:09:15;;;;;;;31.05;20.57;;;;;;;16.63;92.75;100906.88;1655960;85;27592;-76
2021/08/21 05:11:44;;;;;;;35.75;23.12;;;;;;;16.66;92.81;100906.42;1633540;84;26251;-75
2021/08/21 05:14:12;;;;;;;34.35;23.45;;;;;;;16.66;92.64;100905.91;1655841;84;26600;-76
2021/08/21 05:16:42;;;;;;;34.50;22.52;;;;;;;16.69;92.58;100908.70;1626993;83;25887;-76
2021/08/21 05:19:23;;;;;;;34.27;23.90;;;;;;;16.73;92.64;100907.21;1665551;84;25924;-76
2021/08/21 05:21:48;;;;;;;31.25;21.75;;;;;;;16.73;92.42;100909.92;1705943;83;27447;-76
2021/08/21 05:24:08;;;;;;;32.08;21.23;;;;;;;16.72;92.45;100906.38;1676845;84;25866;-76
2021/08/21 05:26:35;;;;;;;34.45;22.82;;;;;;;16.75;92.52;100907.82;1632026;84;25936;-76
2021/08/21 05:29:02;;;;;;;35.68;22.73;;;;;;;16.81;92.51;100913.70;1623578;83;25864;-76
2021/08/21 05:31:29;;;;;;;31.80;21.48;;;;;;;16.88;92.71;100915.33;1644768;85;25346;-76
2021/08/21 05:33:57;;;;;;;34.60;23.22;;;;;;;16.93;92.64;100920.08;1670999;84;27535;-75
2021/08/21 05:36:24;;;;;;;33.25;21.87;;;;;;;16.96;92.58;100923.68;1604046;85;25824;-76
2021/08/21 05:38:51;;;;;;;29.95;20.50;;;;;;;17.01;92.37;100918.97;1679730;83;26828;-76
2021/08/21 05:41:18;;;;;;;32.33;21.10;;;;;;;17.05;92.41;100915.59;1672090;83;26312;-76
2021/08/21 05:43:45;;;;;;;30.70;21.45;;;;;;;17.10;92.31;100925.77;1671852;83;25857;-76
2021/08/21 05:46:12;;;;;;;29.23;20.48;;;;;;;17.09;91.97;100918.68;1620703;84;27612;-76
2021/08/21 05:48:39;;;;;;;34.30;21.80;;;;;;;17.09;91.69;100922.22;1645981;83;26502;-76
2021/08/21 05:51:06;;;;;;;26.30;18.02;;;;;;;17.12;91.73;100925.02;1663586;84;26701;-76
2021/08/21 05:53:33;;;;;;;26.80;19.87;;;;;;;17.10;91.17;100928.47;1683660;83;26366;-76
2021/08/21 05:56:00;;;;;;;30.77;20.08;;;;;;;17.08;90.89;100927.87;1625097;84;25809;-76
2021/08/21 05:58:27;;;;;;;29.90;19.37;;;;;;;17.05;90.85;100929.65;1675775;83;27184;-78
2021/08/21 06:00:54;;;;;;;24.23;17.75;;;;;;;17.03;90.87;100925.81;1677279;83;25939;-78
2021/08/21 06:03:21;;;;;;;22.50;16.93;;;;;;;17.01;90.37;100937.39;1705935;83;25821;-78
2021/08/21 06:05:48;;;;;;;24.70;17.60;;;;;;;16.98;90.35;100940.01;1647106;83;25834;-78
2021/08/21 06:08:16;;;;;;;28.17;20.45;;;;;;;17.01;90.59;100945.51;1672505;83;26242;-78
2021/08/21 06:10:45;;;;;;;28.23;18.27;;;;;;;17.05;90.65;100945.89;1693322;83;27428;-78
2021/08/21 06:13:17;;;;;;;25.57;16.93;;;;;;;17.09;90.64;100950.64;1687285;83;27084;-77
2021/08/21 06:15:44;;;;;;;23.05;16.57;;;;;;;17.12;90.60;100951.56;1645248;83;25835;-78
2021/08/21 06:18:11;;;;;;;24.92;16.00;;;;;;;17.19;90.47;100948.81;1665851;83;26581;-77
2021/08/21 06:20:38;;;;;;;21.52;15.48;;;;;;;17.18;90.16;100953.39;1672467;83;25837;-77
2021/08/21 06:23:05;;;;;;;23.05;14.05;;;;;;;17.20;90.22;100951.80;1689656;83;27641;-77
2021/08/21 06:25:32;;;;;;;19.55;13.93;;;;;;;17.22;89.99;100957.83;1638877;83;25841;-77
2021/08/21 06:27:59;;;;;;;18.27;13.75;;;;;;;17.26;89.83;100956.33;1663461;83;25788;-77
2021/08/21 06:30:26;;;;;;;19.48;13.88;;;;;;;17.32;89.79;100960.33;1687816;83;25774;-77
2021/08/21 06:32:53;;;;;;;23.02;15.08;;;;;;;17.41;89.70;100962.23;1694952;83;26389;-77
2021/08/21 06:35:20;;;;;;;15.50;13.00;;;;;;;17.49;90.14;100964.12;1639988;84;27914;-77
2021/08/21 06:37:47;;;;;;;16.97;13.00;;;;;;;17.51;89.39;100960.70;1659641;83;25800;-77
2021/08/21 06:40:15;;;;;;;17.65;12.63;;;;;;;17.53;89.19;100964.56;1655549;83;26641;-76
2021/08/21 06:42:42;;;;;;;15.83;11.30;;;;;;;17.55;88.64;100963.81;1672490;83;25959;-77
2021/08/21 06:45:13;;;;;;;15.88;11.73;;;;;;;17.54;88.35;100964.85;1661715;83;26019;-77
2021/08/21 06:47:40;;;;;;;13.53;11.08;;;;;;;17.56;87.93;100968.16;1641444;83;27646;-78
2021/08/21 06:50:09;;;;;;;15.72;11.18;;;;;;;17.55;87.63;100965.17;1662728;84;25780;-77
2021/08/21 06:52:37;;;;;;;13.70;10.65;;;;;;;17.59;87.45;100965.86;1692102;83;25878;-77
2021/08/21 06:55:05;;;;;;;15.28;11.75;;;;;;;17.64;87.06;100971.41;1592610;84;26712;-77
2021/08/21 06:57:32;;;;;;;16.37;11.18;;;;;;;17.73;87.46;100965.17;1655428;84;25853;-77
2021/08/21 06:59:59;;;;;;;16.07;10.95;;;;;;;17.82;86.73;100969.26;1667324;84;27564;-77
2021/08/21 07:02:26;;;;;;;14.38;9.90;;;;;;;17.90;86.74;100968.95;1680431;84;25828;-77
2021/08/21 07:04:53;;;;;;;13.65;11.08;;;;;;;18.03;86.14;100970.68;1609859;84;25768;-77
2021/08/21 07:07:20;;;;;;;16.35;10.63;;;;;;;18.15;86.24;100974.31;1652119;85;26539;-77
2021/08/21 07:09:47;;;;;;;12.90;9.65;;;;;;;18.27;86.68;100963.83;1660516;84;25845;-77
2021/08/21 07:12:14;;;;;;;14.63;10.25;;;;;;;18.44;85.52;100971.67;1658676;85;27595;-77
2021/08/21 07:14:41;;;;;;;12.43;10.10;;;;;;;18.48;84.87;100973.38;1615287;84;26017;-76
2021/08/21 07:17:10;;;;;;;14.03;10.80;;;;;;;18.45;84.26;100984.16;1660548;84;25980;-76
2021/08/21 07:19:37;;;;;;;12.13;9.78;;;;;;;18.45;84.00;100977.38;1669887;84;26173;-77
2021/08/21 07:22:05;;;;;;;14.83;10.93;;;;;;;18.52;83.73;100981.36;1686427;84;25992;-76
2021/08/21 07:24:32;;;;;;;13.00;9.58;;;;;;;18.53;83.59;100983.55;1637044;84;28124;-78
2021/08/21 07:26:59;;;;;;;13.10;9.80;;;;;;;18.51;82.55;100981.59;1658267;84;25912;-77
2021/08/21 07:29:26;;;;;;;11.43;9.08;;;;;;;18.48;82.69;100982.08;1636261;85;26216;-76
2021/08/21 07:31:54;;;;;;;12.05;9.05;;;;;;;18.50;82.96;100981.31;1646416;84;25873;-77
2021/08/21 07:34:21;;;;;;;13.25;9.05;;;;;;;18.44;82.40;100987.11;1611729;85;25834;-77
2021/08/21 07:36:48;;;;;;;15.55;9.48;;;;;;;18.40;82.98;100984.52;1638905;84;27629;-77
2021/08/21 07:39:15;;;;;;;13.00;8.43;;;;;;;18.42;82.89;100994.09;1652429;85;25974;-78
2021/08/21 07:41:42;;;;;;;7.80;6.90;;;;;;;18.44;82.48;100991.17;1669293;84;26056;-77
2021/08/21 07:44:10;;;;;;;7.58;6.47;;;;;;;18.43;82.07;100999.80;1629599;84;25874;-77
2021/08/21 07:46:39;;;;;;;9.53;7.33;;;;;;;18.44;82.55;100996.59;1625643;85;25882;-76
2021/08/21 07:49:06;;;;;;;7.72;6.45;;;;;;;18.51;82.42;101000.06;1673621;83;27489;-77
2021/08/21 07:51:33;;;;;;;10.55;7.60;;;;;;;18.52;81.97;101006.33;1646472;85;26733;-77
2021/08/21 07:54:00;;;;;;;7.50;6.67;;;;;;;18.48;82.01;101008.12;1642477;83;26042;-77
2021/08/21 07:56:27;;;;;;;7.50;6.00;;;;;;;18.56;82.05;101001.58;1621790;84;26575;-77
2021/08/21 07:58:54;;;;;;;6.90;5.80;;;;;;;18.71;82.78;101007.39;1648304;84;25909;-78
2021/08/21 08:01:21;;;;;;;9.48;6.50;;;;;;;18.79;81.03;101007.61;1648995;82;27558;-77
2021/08/21 08:03:48;;;;;;;8.30;6.53;;;;;;;18.78;80.21;101003.23;1627808;84;26642;-77
2021/08/21 08:06:15;;;;;;;8.33;7.12;;;;;;;18.78;80.12;101006.78;1654366;85;25826;-78
2021/08/21 08:08:42;;;;;;;8.73;6.28;;;;;;;18.75;79.92;101011.33;1661697;84;26232;-77
2021/08/21 08:11:10;;;;;;;6.85;6.15;;;;;;;18.75;80.06;101014.05;1681930;84;25868;-78
2021/08/21 08:13:37;;;;;;;8.60;6.70;;;;;;;18.78;80.59;101013.56;1633844;84;27546;-78
2021/08/21 08:16:04;;;;;;;9.45;6.80;;;;;;;18.81;79.97;101014.48;1652756;84;26677;-78
2021/08/21 08:18:31;;;;;;;8.50;6.35;;;;;;;18.81;80.00;101019.91;1656492;85;25895;-78
2021/08/21 08:20:59;;;;;;;10.75;7.50;;;;;;;18.86;80.01;101020.58;1664534;84;25834;-78
2021/08/21 08:23:26;;;;;;;10.32;7.47;;;;;;;18.85;79.77;101018.91;1639473;84;25869;-77
2021/08/21 08:25:53;;;;;;;9.63;7.03;;;;;;;18.82;79.26;101018.02;1630955;85;27081;-78
2021/08/21 08:28:20;;;;;;;10.93;7.20;;;;;;;18.82;79.60;101020.73;1674710;84;25952;-78
2021/08/21 08:30:47;;;;;;;9.55;7.62;;;;;;;18.84;79.47;101022.14;1646544;84;25861;-78
2021/08/21 08:33:14;;;;;;;7.87;6.60;;;;;;;18.88;79.69;101020.61;1632662;85;25888;-78
2021/08/21 08:35:41;;;;;;;8.48;6.90;;;;;;;18.95;79.67;101019.16;1629811;84;25767;-78
2021/08/21 08:38:08;;;;;;;9.10;7.75;;;;;;;19.09;80.25;101018.77;1673586;84;27584;-78
2021/08/21 08:40:35;;;;;;;8.73;7.22;;;;;;;19.26;79.82;101018.91;1640187;84;25859;-78
2021/08/21 08:43:05;;;;;;;12.45;7.92;;;;;;;19.44;80.10;101020.20;1674697;83;25878;-79
2021/08/21 08:45:32;;;;;;;7.78;5.92;;;;;;;19.69;80.07;101021.36;1650029;84;25972;-78
2021/08/21 08:48:00;;;;;;;7.80;6.00;;;;;;;19.76;76.89;101018.80;1670736;84;25849;-78
2021/08/21 08:50:29;;;;;;;6.40;5.15;;;;;;;19.70;75.83;101022.99;1636174;84;28126;-78
2021/08/21 08:52:56;;;;;;;6.92;5.05;;;;;;;19.63;76.64;101020.39;1650148;84;26222;-77
2021/08/21 08:55:24;;;;;;;5.75;4.78;;;;;;;19.60;76.27;101021.41;1654681;84;25910;-77
2021/08/21 08:57:53;;;;;;;6.05;4.75;;;;;;;19.55;76.60;101028.89;1674755;84;26464;-78
2021/08/21 09:00:23;;;;;;;5.45;4.50;;;;;;;19.47;76.47;101025.17;1650699;85;26656;-78
2021/08/21 09:02:54;;;;;;;5.03;4.53;;;;;;;19.38;76.00;101029.81;1632472;84;28248;-78
2021/08/21 09:05:27;;;;;;;6.70;4.87;;;;;;;19.35;76.75;101039.28;1625150;84;33316;-78
2021/08/21 09:07:57;;;;;;;5.70;4.92;;;;;;;19.33;76.98;101035.11;1677791;84;25716;-78
2021/08/21 09:10:29;;;;;;;9.68;5.12;;;;;;;19.33;77.72;101035.94;1627984;85;26682;-78
2021/08/21 09:13:13;;;;;;;4.53;4.12;;;;;;;19.38;77.37;101040.16;1633370;84;25422;-78
2021/08/21 09:15:46;;;;;;;5.12;3.47;;;;;;;19.42;77.51;101035.11;1653868;84;27437;-78
2021/08/21 09:18:21;;;;;;;5.20;3.80;;;;;;;19.43;77.03;101039.45;1676732;84;26534;-78
2021/08/21 09:20:53;;;;;;;5.12;4.28;;;;;;;19.42;75.64;101037.82;1642008;85;26438;-77
2021/08/21 09:23:36;;;;;;;3.77;3.37;;;;;;;19.37;75.36;101045.31;1675770;84;25771;-78
2021/08/21 09:26:14;;;;;;;4.62;3.10;;;;;;;19.35;75.14;101047.44;1653356;84;26008;-78
2021/08/21 09:28:44;;;;;;;4.05;3.60;;;;;;;19.33;75.31;101044.61;1681387;83;28304;-77
2021/08/21 09:31:14;;;;;;;4.22;3.83;;;;;;;19.34;75.31;101051.69;1654886;85;25891;-78
2021/08/21 09:33:53;;;;;;;3.92;2.90;;;;;;;19.35;75.40;101058.82;1645016;85;26573;-78
2021/08/21 09:36:36;;;;;;;4.47;3.55;;;;;;;19.41;75.58;101048.38;1625053;85;25994;-78
2021/08/21 09:39:07;;;;;;;3.67;3.33;;;;;;;19.49;75.48;101051.58;1679987;84;25866;-78
2021/08/21 09:42:02;;;;;;;6.50;5.75;;;;;;;19.51;75.43;101048.09;1647704;85;28126;-78
2021/08/21 09:44:37;;;;;;;5.05;4.53;;;;;;;19.67;75.37;101054.22;1621061;85;25835;-77
2021/08/21 09:47:28;;;;;;;4.90;4.08;;;;;;;19.91;75.28;101051.78;1642940;85;26528;-77
2021/08/21 09:49:53;;;;;;;5.65;4.95;;;;;;;20.05;74.37;101051.02;1671448;84;25819;-77
2021/08/21 09:52:21;;;;;;;5.87;4.33;;;;;;;20.22;74.53;101049.78;1652959;83;25907;-78
2021/08/21 09:55:14;;;;;;;6.17;4.40;;;;;;;20.38;73.52;101043.06;1647976;83;27537;-78
2021/08/21 09:57:39;;;;;;;;;;;;;;;20.51;74.18;101040.59;1662980;85;25933;-78
2021/08/21 10:00:08;;;;;;;3.30;3.00;;;;;;;20.59;71.54;101046.48;1665055;84;26336;-78
2021/08/21 10:02:46;;;;;;;3.92;3.58;;;;;;;20.45;71.83;101052.45;1661015;84;25847;-77
2021/08/21 10:05:13;;;;;;;3.50;3.17;;;;;;;20.37;71.95;101045.50;1629550;84;25325;-77
2021/08/21 10:07:45;;;;;;;4.78;4.10;;;;;;;20.33;72.54;101051.13;1687491;84;27560;-77
2021/08/21 10:10:12;;;;;;;4.37;3.50;;;;;;;20.32;72.46;101041.30;1686213;84;26543;-78
2021/08/21 10:12:44;;;;;;;4.00;3.60;;;;;;;20.30;72.36;101043.44;1614431;85;25396;-77
2021/08/21 10:15:10;;;;;;;;;;;;;;;20.25;72.44;101050.12;1656602;85;26558;-78
2021/08/21 10:17:39;;;;;;;4.45;3.40;;;;;;;20.22;72.19;101053.34;1651851;84;43926;-77
2021/08/21 10:20:09;;;;;;;6.20;3.67;;;;;;;20.11;72.33;101047.34;1689016;83;27607;-78
2021/08/21 10:22:36;;;;;;;3.95;3.42;;;;;;;19.99;72.31;101047.89;1637359;84;25878;-77
2021/08/21 10:25:07;;;;;;;4.10;3.70;;;;;;;19.88;71.95;101055.52;1656787;84;25893;-77
2021/08/21 10:27:54;;;;;;;3.92;3.47;;;;;;;19.79;72.30;101050.13;1684568;84;26580;-78
2021/08/21 10:30:25;;;;;;;4.05;3.75;;;;;;;19.73;72.73;101050.55;1676123;84;25820;-77
2021/08/21 10:33:03;;;;;;;4.10;3.80;;;;;;;19.70;72.81;101047.45;1617496;84;28915;-77
2021/08/21 10:35:54;;;;;;;5.55;3.87;;;;;;;19.68;73.57;101050.42;1660399;84;25698;-77
2021/08/21 10:38:37;;;;;;;4.28;3.77;;;;;;;19.77;74.24;101049.02;1684203;83;26422;-77
2021/08/21 10:41:15;;;;;;;4.50;4.08;;;;;;;19.94;75.14;101041.80;1693785;83;25925;-77
2021/08/21 10:43:51;;;;;;;4.37;3.98;;;;;;;20.14;74.08;101043.32;1665097;84;25841;-78
2021/08/21 10:46:36;;;;;;;6.87;3.98;;;;;;;20.30;73.52;101040.72;1650628;84;27428;-78
2021/08/21 10:49:09;;;;;;;4.70;4.20;;;;;;;20.43;73.10;101040.45;1684005;84;26502;-78
2021/08/21 10:51:40;;;;;;;4.95;4.00;;;;;;;20.53;73.24;101035.77;1678181;84;26283;-77
2021/08/21 10:54:30;;;;;;;4.67;4.12;;;;;;;20.70;72.29;101040.70;1637239;84;25857;-78
2021/08/21 10:57:19;;;;;;;4.08;3.70;;;;;;;20.82;71.88;101036.06;1656550;84;25924;-78
2021/08/21 10:59:47;;;;;;;4.62;3.75;;;;;;;20.93;71.23;101033.83;1688238;84;27576;-78
2021/08/21 11:02:35;;;;;;;4.05;3.27;;;;;;;20.98;71.16;101031.74;1662161;84;25972;-77
2021/08/21 11:05:02;;;;;;;3.65;3.10;;;;;;;20.99;69.47;101030.13;1661823;84;26165;-78
2021/08/21 11:07:40;;;;;;;4.95;3.17;;;;;;;20.98;70.26;101029.02;1636614;84;25784;-78
2021/08/21 11:10:18;;;;;;;3.17;2.87;;;;;;;21.00;69.37;101030.40;1673749;84;25928;-78
2021/08/21 11:12:49;;;;;;;4.10;3.12;;;;;;;20.98;67.93;101031.18;1673960;84;27443;-77
2021/08/21 11:15:22;;;;;;;3.37;3.08;;;;;;;21.02;68.86;101029.62;1652878;84;25841;-78
2021/08/21 11:17:50;;;;;;;4.42;3.02;;;;;;;21.12;69.84;101027.13;1672002;83;26069;-77
2021/08/21 11:20:32;;;;;;;3.20;2.83;;;;;;;21.21;69.56;101031.64;1681398;84;25959;-78
2021/08/21 11:23:11;;;;;;;3.50;2.80;;;;;;;21.27;68.99;101035.58;1666458;84;25822;-77
2021/08/21 11:25:43;;;;;;;6.62;3.20;;;;;;;21.31;68.09;101031.28;1643431;85;27600;-77